^^
Station Historical Data
Daily Summary for January 18, 2018 Units:  English    Metric   Both
« Previous Day
Next Day »
Daily Weekly Monthly Yearly Custom
  High: Low: Average:
Temperature: TemperatureF °F 65.5 °F 77.6 °F
Dew Point: DewpointF °F 46.4 °F 49.8 °F
Humidity: Humidity% 27% 39%
Wind Speed: WindSpeedMPHmph -999.9mph -15.4mph
Wind Gust: WindSpeedGustMPHmph - -
Wind- -
Pressure: PressureIn in 29.57 in -
Precipitation: 0.00 in    
Historical Graphs
 
 
Tabular Data for January 18, 2018
Time Temperature Dew Point Pressure Wind Wind Speed Wind Gust Humidity Rainfall Rate (Hourly) solar Conditions
TemperatureF °F DewpointF °F PressureIn in Calm     Humidity% HourlyPrecipIn in SoftwareType W/m2 Conditions
09:20 65.5 °F 53.8 °F 29.68 in North -999.9 mph -999.0 mph 66% 0.00 in meteobridge W/m2
09:25 66.0 °F 54.3 °F 29.68 in North 11.0 mph 13.0 mph 66% 0.00 in meteobridge W/m2
09:32 65.7 °F 54.0 °F 29.68 in NE 8.9 mph 14.0 mph 66% 0.00 in meteobridge W/m2
09:38 66.0 °F 54.0 °F 29.68 in NNE 8.9 mph 12.0 mph 65% 0.00 in meteobridge W/m2
09:44 66.6 °F 54.0 °F 29.68 in North 14.1 mph 14.1 mph 64% 0.00 in meteobridge W/m2
09:50 66.7 °F 54.1 °F 29.68 in North 8.1 mph 13.0 mph 64% 0.00 in meteobridge W/m2
09:56 66.9 °F 54.3 °F 29.69 in North 6.9 mph 11.0 mph 64% 0.00 in meteobridge W/m2
10:02 66.9 °F 54.3 °F 29.69 in NNE 11.0 mph 15.0 mph 64% 0.00 in meteobridge W/m2
10:08 67.3 °F 54.7 °F 29.69 in NNW 8.9 mph 13.0 mph 64% 0.00 in meteobridge W/m2
10:14 67.6 °F 54.7 °F 29.70 in NNE 11.0 mph 14.0 mph 63% 0.00 in meteobridge W/m2
10:21 67.5 °F 54.5 °F 29.70 in NNE 8.9 mph 13.0 mph 63% 0.00 in meteobridge W/m2
10:27 67.8 °F 54.7 °F 29.70 in NNE 12.1 mph 14.0 mph 63% 0.00 in meteobridge W/m2
10:33 68.5 °F 54.1 °F 29.70 in North 13.0 mph 18.0 mph 60% 0.00 in meteobridge W/m2
10:39 68.9 °F 53.6 °F 29.70 in NNW 8.1 mph 16.0 mph 58% 0.00 in meteobridge W/m2
10:45 69.1 °F 53.2 °F 29.71 in North 16.1 mph 16.1 mph 57% 0.00 in meteobridge W/m2
10:51 69.4 °F 53.1 °F 29.70 in North 8.9 mph 16.0 mph 56% 0.00 in meteobridge W/m2
10:57 70.2 °F 54.1 °F 29.70 in NNE 6.9 mph 15.0 mph 57% 0.00 in meteobridge W/m2
11:03 70.3 °F 52.9 °F 29.70 in North 11.0 mph 17.0 mph 54% 0.00 in meteobridge W/m2
11:09 70.9 °F 53.4 °F 29.70 in NNE 11.0 mph 15.0 mph 54% 0.00 in meteobridge W/m2
11:15 71.6 °F 52.5 °F 29.70 in North 11.0 mph 15.0 mph 51% 0.00 in meteobridge W/m2
11:22 72.5 °F 52.9 °F 29.70 in NNE 12.1 mph 15.0 mph 50% 0.00 in meteobridge W/m2
11:28 73.8 °F 52.9 °F 29.70 in NNE 12.1 mph 17.0 mph 48% 0.00 in meteobridge W/m2
11:34 74.7 °F 52.0 °F 29.69 in North 8.9 mph 16.0 mph 45% 0.00 in meteobridge W/m2
11:40 75.7 °F 52.3 °F 29.69 in NNE 12.1 mph 19.0 mph 44% 0.00 in meteobridge W/m2
11:46 76.5 °F 52.9 °F 29.69 in North 11.0 mph 15.0 mph 44% 0.00 in meteobridge W/m2
11:52 76.8 °F 52.7 °F 29.69 in North 14.1 mph 15.0 mph 43% 0.00 in meteobridge W/m2
11:58 77.4 °F 52.5 °F 29.69 in North 8.9 mph 14.0 mph 42% 0.00 in meteobridge W/m2
12:04 76.8 °F 52.0 °F 29.69 in NNE 4.9 mph 13.0 mph 42% 0.00 in meteobridge W/m2
12:11 77.2 °F 52.3 °F 29.68 in NNE 11.0 mph 19.0 mph 42% 0.00 in meteobridge W/m2
12:17 77.9 °F 50.9 °F 29.69 in NNE 11.0 mph 18.0 mph 39% 0.00 in meteobridge W/m2
12:23 78.1 °F 51.1 °F 29.68 in NNE 6.9 mph 19.0 mph 39% 0.00 in meteobridge W/m2
12:29 78.3 °F 50.5 °F 29.67 in NNE 11.0 mph 22.0 mph 38% 0.00 in meteobridge W/m2
12:35 78.1 °F 49.6 °F 29.68 in NNE 8.1 mph 15.0 mph 37% 0.00 in meteobridge W/m2
12:41 78.6 °F 50.9 °F 29.68 in NNE 14.1 mph 20.0 mph 38% 0.00 in meteobridge W/m2
12:47 78.6 °F 50.2 °F 29.67 in East 2.0 mph 6.0 mph 37% 0.00 in meteobridge W/m2
12:54 80.2 °F 50.2 °F 29.67 in NNE 6.9 mph 15.0 mph 35% 0.00 in meteobridge W/m2
12:59 80.4 °F 50.2 °F 29.67 in NE 8.9 mph 12.0 mph 35% 0.00 in meteobridge W/m2
13:22 79.9 °F 48.9 °F 29.67 in North 17.0 mph 17.0 mph 34% 0.00 in meteobridge W/m2
13:28 80.2 °F 50.2 °F 29.66 in NE 6.0 mph 15.0 mph 35% 0.00 in meteobridge W/m2
13:34 80.8 °F 50.5 °F 29.67 in SSE 4.9 mph 6.0 mph 35% 0.00 in meteobridge W/m2
13:40 79.9 °F 49.8 °F 29.66 in NNE 13.0 mph 19.0 mph 35% 0.00 in meteobridge W/m2
13:47 79.2 °F 49.1 °F 29.66 in North 11.0 mph 12.0 mph 35% 0.00 in meteobridge W/m2
13:53 81.1 °F 49.3 °F 29.66 in NE 4.9 mph 12.0 mph 33% 0.00 in meteobridge W/m2
13:59 81.7 °F 48.9 °F 29.65 in North 4.0 mph 14.0 mph 32% 0.00 in meteobridge W/m2
14:05 82.8 °F 49.8 °F 29.65 in Calm   5.0 mph 32% 0.00 in meteobridge W/m2
14:11 82.4 °F 49.6 °F 29.65 in NNE 10.1 mph 17.0 mph 32% 0.00 in meteobridge W/m2
14:17 81.7 °F 49.8 °F 29.65 in ENE 6.0 mph 13.0 mph 33% 0.00 in meteobridge W/m2
14:23 81.7 °F 49.8 °F 29.65 in SE 4.9 mph 5.0 mph 33% 0.00 in meteobridge W/m2
14:30 81.0 °F 50.0 °F 29.65 in NE 2.9 mph 6.0 mph 34% 0.00 in meteobridge W/m2
14:36 82.9 °F 50.0 °F 29.65 in ESE 4.0 mph 7.0 mph 32% 0.00 in meteobridge W/m2
14:42 86.4 °F 51.3 °F 29.64 in Calm   5.0 mph 30% 0.00 in meteobridge W/m2
14:48 85.6 °F 49.8 °F 29.64 in NE 4.9 mph 14.0 mph 29% 0.00 in meteobridge W/m2
14:54 83.8 °F 50.0 °F 29.63 in NNE 6.0 mph 11.0 mph 31% 0.00 in meteobridge W/m2
15:00 82.2 °F 48.6 °F 29.63 in North 6.9 mph 10.0 mph 31% 0.00 in meteobridge W/m2
15:06 81.3 °F 47.8 °F 29.63 in North 10.1 mph 15.0 mph 31% 0.00 in meteobridge W/m2
15:12 80.4 °F 47.8 °F 29.63 in NW 2.9 mph 6.0 mph 32% 0.00 in meteobridge W/m2
15:18 81.5 °F 48.7 °F 29.62 in SSE 2.9 mph 7.0 mph 32% 0.00 in meteobridge W/m2
15:24 83.5 °F 48.7 °F 29.62 in NNW 4.0 mph 6.0 mph 30% 0.00 in meteobridge W/m2
15:31 83.7 °F 49.8 °F 29.62 in NNE 4.9 mph 6.0 mph 31% 0.00 in meteobridge W/m2
15:51 83.3 °F 48.6 °F 29.61 in NNE 4.0 mph 9.0 mph 30% 0.00 in meteobridge W/m2
15:57 83.3 °F 48.6 °F 29.61 in NNW 2.9 mph 5.0 mph 30% 0.00 in meteobridge W/m2
16:03 84.0 °F 49.3 °F 29.60 in North 11.0 mph 12.0 mph 30% 0.00 in meteobridge W/m2
16:09 84.4 °F 48.7 °F 29.59 in NNE 12.1 mph 14.0 mph 29% 0.00 in meteobridge W/m2
16:15 82.8 °F 48.2 °F 29.60 in North 4.9 mph 12.0 mph 30% 0.00 in meteobridge W/m2
16:22 81.9 °F 48.2 °F 29.60 in ENE 2.9 mph 9.0 mph 31% 0.00 in meteobridge W/m2
16:28 81.7 °F 48.0 °F 29.60 in NNE 4.9 mph 10.0 mph 31% 0.00 in meteobridge W/m2
16:34 83.1 °F 47.7 °F 29.60 in NE 4.9 mph 6.0 mph 29% 0.00 in meteobridge W/m2
16:40 84.4 °F 47.7 °F 29.59 in NNE 0.9 mph 5.0 mph 28% 0.00 in meteobridge W/m2
16:46 85.6 °F 48.7 °F 29.59 in NNE 4.9 mph 5.0 mph 28% 0.00 in meteobridge W/m2
16:52 85.5 °F 48.6 °F 29.59 in Calm   3.0 mph 28% 0.00 in meteobridge W/m2
16:58 86.2 °F 49.3 °F 29.59 in SSW 0.9 mph 4.0 mph 28% 0.00 in meteobridge W/m2
17:04 86.7 °F 48.7 °F 29.58 in NE 4.0 mph 10.0 mph 27% 0.00 in meteobridge W/m2
17:10 85.5 °F 48.6 °F 29.58 in NNE 0.9 mph 10.0 mph 28% 0.00 in meteobridge W/m2
17:17 85.3 °F 48.6 °F 29.58 in North 4.0 mph 16.0 mph 28% 0.00 in meteobridge W/m2
17:23 84.9 °F 48.2 °F 29.57 in NNE 4.9 mph 10.0 mph 28% 0.00 in meteobridge W/m2
17:29 84.6 °F 47.8 °F 29.57 in North 11.0 mph 15.0 mph 28% 0.00 in meteobridge W/m2
17:35 84.4 °F 47.7 °F 29.57 in North 4.9 mph 12.0 mph 28% 0.00 in meteobridge W/m2
17:41 84.6 °F 47.8 °F 29.57 in NNW 0.9 mph 10.0 mph 28% 0.00 in meteobridge W/m2
17:47 84.7 °F 48.0 °F 29.57 in NNE 4.9 mph 13.0 mph 28% 0.00 in meteobridge W/m2
17:53 84.0 °F 47.5 °F 29.57 in NNE 6.0 mph 12.0 mph 28% 0.00 in meteobridge W/m2
17:59 84.4 °F 47.7 °F 29.57 in Calm   3.0 mph 28% 0.00 in meteobridge W/m2
18:05 84.4 °F 47.7 °F 29.57 in North 6.0 mph 7.0 mph 28% 0.00 in meteobridge W/m2
18:11 82.9 °F 46.4 °F 29.57 in SE 4.0 mph 9.0 mph 28% 0.00 in meteobridge W/m2
18:17 82.2 °F 46.8 °F 29.57 in Calm     29% 0.00 in meteobridge W/m2
18:23 81.9 °F 46.4 °F 29.57 in NW 0.9 mph 3.0 mph 29% 0.00 in meteobridge W/m2
18:30 81.7 °F 46.4 °F 29.57 in NNE 4.0 mph 4.0 mph 29% 0.00 in meteobridge W/m2
18:36 81.7 °F 46.4 °F 29.57 in NNE 4.0 mph -999.0 mph 29% 0.00 in meteobridge W/m2
18:41 81.7 °F 46.4 °F 29.57 in NNE 4.0 mph -999.0 mph 29% 0.00 in meteobridge W/m2
18:48 81.7 °F 46.4 °F 29.57 in North -999.9 mph -999.0 mph 29% 0.00 in meteobridge W/m2
Regenstein, Windhoek, Namibia
Compliments of Weather Underground - 2.5 mb